sensor_id;sensor_type;location;lat;lon;timestamp;P1;durP1;ratioP1;P2;durP2;ratioP2
66970;SDS011;53901;51.466;-2.588;2024-01-11T00:01:17;5.38;;;2.33;;
66970;SDS011;53901;51.466;-2.588;2024-01-11T00:03:43;6.95;;;2.63;;
66970;SDS011;53901;51.466;-2.588;2024-01-11T00:06:08;7.38;;;2.28;;
66970;SDS011;53901;51.466;-2.588;2024-01-11T00:08:34;7.47;;;1.77;;
66970;SDS011;53901;51.466;-2.588;2024-01-11T00:10:59;9.18;;;2.30;;
66970;SDS011;53901;51.466;-2.588;2024-01-11T00:13:28;3.72;;;2.10;;
66970;SDS011;53901;51.466;-2.588;2024-01-11T00:15:57;4.88;;;2.00;;
66970;SDS011;53901;51.466;-2.588;2024-01-11T00:18:25;3.17;;;2.00;;
66970;SDS011;53901;51.466;-2.588;2024-01-11T00:20:51;2.63;;;1.90;;
66970;SDS011;53901;51.466;-2.588;2024-01-11T00:23:17;3.33;;;2.00;;
66970;SDS011;53901;51.466;-2.588;2024-01-11T00:25:42;4.47;;;2.22;;
66970;SDS011;53901;51.466;-2.588;2024-01-11T00:28:08;9.30;;;2.42;;
66970;SDS011;53901;51.466;-2.588;2024-01-11T00:30:36;5.25;;;2.63;;
66970;SDS011;53901;51.466;-2.588;2024-01-11T00:33:02;3.17;;;1.90;;
66970;SDS011;53901;51.466;-2.588;2024-01-11T00:35:28;7.53;;;2.60;;
66970;SDS011;53901;51.466;-2.588;2024-01-11T00:37:53;6.00;;;2.38;;
66970;SDS011;53901;51.466;-2.588;2024-01-11T00:40:19;3.47;;;2.00;;
66970;SDS011;53901;51.466;-2.588;2024-01-11T00:42:45;4.97;;;2.05;;
66970;SDS011;53901;51.466;-2.588;2024-01-11T00:45:10;6.97;;;2.10;;
66970;SDS011;53901;51.466;-2.588;2024-01-11T00:47:36;6.28;;;1.80;;
66970;SDS011;53901;51.466;-2.588;2024-01-11T00:50:01;4.07;;;1.90;;
66970;SDS011;53901;51.466;-2.588;2024-01-11T00:52:26;3.55;;;1.90;;
66970;SDS011;53901;51.466;-2.588;2024-01-11T00:54:52;4.70;;;2.22;;
66970;SDS011;53901;51.466;-2.588;2024-01-11T00:57:17;3.33;;;2.00;;
66970;SDS011;53901;51.466;-2.588;2024-01-11T00:59:43;4.55;;;2.22;;
66970;SDS011;53901;51.466;-2.588;2024-01-11T01:02:08;7.25;;;2.10;;
66970;SDS011;53901;51.466;-2.588;2024-01-11T01:04:37;3.30;;;2.00;;
66970;SDS011;53901;51.466;-2.588;2024-01-11T01:07:05;5.07;;;2.47;;
66970;SDS011;53901;51.466;-2.588;2024-01-11T01:09:42;3.33;;;2.10;;
66970;SDS011;53901;51.466;-2.588;2024-01-11T01:12:08;4.07;;;2.00;;
66970;SDS011;53901;51.466;-2.588;2024-01-11T01:14:37;5.10;;;2.38;;
66970;SDS011;53901;51.466;-2.588;2024-01-11T01:17:02;5.07;;;2.10;;
66970;SDS011;53901;51.466;-2.588;2024-01-11T01:19:28;8.68;;;2.40;;
66970;SDS011;53901;51.466;-2.588;2024-01-11T01:21:53;7.38;;;2.10;;
66970;SDS011;53901;51.466;-2.588;2024-01-11T01:24:18;3.78;;;1.65;;
66970;SDS011;53901;51.466;-2.588;2024-01-11T01:26:44;3.92;;;2.20;;
66970;SDS011;53901;51.466;-2.588;2024-01-11T01:29:10;7.95;;;2.20;;
66970;SDS011;53901;51.466;-2.588;2024-01-11T01:31:35;9.00;;;2.50;;
66970;SDS011;53901;51.466;-2.588;2024-01-11T01:34:03;7.18;;;2.50;;
66970;SDS011;53901;51.466;-2.588;2024-01-11T01:36:29;3.20;;;1.92;;
66970;SDS011;53901;51.466;-2.588;2024-01-11T01:38:54;4.40;;;2.15;;
66970;SDS011;53901;51.466;-2.588;2024-01-11T01:41:20;4.60;;;2.13;;
66970;SDS011;53901;51.466;-2.588;2024-01-11T01:43:45;5.88;;;2.45;;
66970;SDS011;53901;51.466;-2.588;2024-01-11T01:46:10;5.72;;;2.30;;
66970;SDS011;53901;51.466;-2.588;2024-01-11T01:48:36;5.75;;;2.30;;
66970;SDS011;53901;51.466;-2.588;2024-01-11T01:51:03;3.65;;;2.13;;
66970;SDS011;53901;51.466;-2.588;2024-01-11T01:53:28;5.47;;;2.40;;
66970;SDS011;53901;51.466;-2.588;2024-01-11T01:55:54;9.82;;;3.10;;
66970;SDS011;53901;51.466;-2.588;2024-01-11T01:58:20;5.70;;;2.30;;
66970;SDS011;53901;51.466;-2.588;2024-01-11T02:00:45;7.88;;;2.20;;
66970;SDS011;53901;51.466;-2.588;2024-01-11T02:03:12;9.38;;;2.20;;
66970;SDS011;53901;51.466;-2.588;2024-01-11T02:05:39;6.50;;;2.47;;
66970;SDS011;53901;51.466;-2.588;2024-01-11T02:08:06;5.63;;;2.30;;
66970;SDS011;53901;51.466;-2.588;2024-01-11T02:10:35;6.35;;;2.20;;
66970;SDS011;53901;51.466;-2.588;2024-01-11T02:13:03;4.22;;;2.17;;
66970;SDS011;53901;51.466;-2.588;2024-01-11T02:15:29;8.05;;;2.47;;
66970;SDS011;53901;51.466;-2.588;2024-01-11T02:17:55;6.90;;;2.70;;
66970;SDS011;53901;51.466;-2.588;2024-01-11T02:20:20;7.32;;;2.40;;
66970;SDS011;53901;51.466;-2.588;2024-01-11T02:22:50;6.38;;;2.55;;
66970;SDS011;53901;51.466;-2.588;2024-01-11T02:25:18;7.30;;;1.95;;
66970;SDS011;53901;51.466;-2.588;2024-01-11T02:27:44;9.05;;;2.63;;
66970;SDS011;53901;51.466;-2.588;2024-01-11T02:30:10;8.32;;;2.30;;
66970;SDS011;53901;51.466;-2.588;2024-01-11T02:32:36;7.38;;;2.42;;
66970;SDS011;53901;51.466;-2.588;2024-01-11T02:35:02;11.40;;;2.40;;
66970;SDS011;53901;51.466;-2.588;2024-01-11T02:37:28;6.75;;;2.42;;
66970;SDS011;53901;51.466;-2.588;2024-01-11T02:39:54;6.03;;;2.38;;
66970;SDS011;53901;51.466;-2.588;2024-01-11T02:42:20;4.35;;;2.22;;
66970;SDS011;53901;51.466;-2.588;2024-01-11T02:44:46;8.82;;;2.53;;
66970;SDS011;53901;51.466;-2.588;2024-01-11T02:47:12;4.97;;;2.10;;
66970;SDS011;53901;51.466;-2.588;2024-01-11T02:49:38;9.05;;;2.40;;
66970;SDS011;53901;51.466;-2.588;2024-01-11T02:52:03;8.85;;;2.83;;
66970;SDS011;53901;51.466;-2.588;2024-01-11T02:54:29;3.42;;;2.20;;
66970;SDS011;53901;51.466;-2.588;2024-01-11T02:56:54;5.53;;;2.22;;
66970;SDS011;53901;51.466;-2.588;2024-01-11T02:59:22;3.90;;;2.30;;
66970;SDS011;53901;51.466;-2.588;2024-01-11T03:01:49;3.78;;;1.77;;
66970;SDS011;53901;51.466;-2.588;2024-01-11T03:04:15;4.88;;;2.20;;
66970;SDS011;53901;51.466;-2.588;2024-01-11T03:06:41;5.03;;;2.28;;
66970;SDS011;53901;51.466;-2.588;2024-01-11T03:09:07;4.45;;;2.25;;
66970;SDS011;53901;51.466;-2.588;2024-01-11T03:11:32;9.77;;;2.42;;
66970;SDS011;53901;51.466;-2.588;2024-01-11T03:13:58;6.72;;;2.13;;
66970;SDS011;53901;51.466;-2.588;2024-01-11T03:16:23;5.40;;;2.38;;
66970;SDS011;53901;51.466;-2.588;2024-01-11T03:18:48;4.40;;;2.03;;
66970;SDS011;53901;51.466;-2.588;2024-01-11T03:21:14;5.50;;;2.40;;
66970;SDS011;53901;51.466;-2.588;2024-01-11T03:23:39;8.48;;;2.38;;
66970;SDS011;53901;51.466;-2.588;2024-01-11T03:26:12;6.55;;;2.53;;
66970;SDS011;53901;51.466;-2.588;2024-01-11T03:28:41;5.82;;;2.40;;
66970;SDS011;53901;51.466;-2.588;2024-01-11T03:31:07;6.32;;;2.80;;
66970;SDS011;53901;51.466;-2.588;2024-01-11T03:33:34;8.38;;;2.42;;
66970;SDS011;53901;51.466;-2.588;2024-01-11T03:35:59;6.90;;;2.63;;
66970;SDS011;53901;51.466;-2.588;2024-01-11T03:38:25;4.50;;;2.47;;
66970;SDS011;53901;51.466;-2.588;2024-01-11T03:40:50;7.53;;;2.50;;
66970;SDS011;53901;51.466;-2.588;2024-01-11T03:43:17;9.18;;;3.15;;
66970;SDS011;53901;51.466;-2.588;2024-01-11T03:45:43;6.88;;;2.42;;
66970;SDS011;53901;51.466;-2.588;2024-01-11T03:48:08;8.68;;;2.83;;
66970;SDS011;53901;51.466;-2.588;2024-01-11T03:50:34;8.25;;;2.83;;
66970;SDS011;53901;51.466;-2.588;2024-01-11T03:52:59;7.90;;;2.67;;
66970;SDS011;53901;51.466;-2.588;2024-01-11T03:55:24;7.13;;;2.78;;
66970;SDS011;53901;51.466;-2.588;2024-01-11T03:57:50;6.00;;;2.88;;
66970;SDS011;53901;51.466;-2.588;2024-01-11T04:00:16;7.20;;;2.40;;
66970;SDS011;53901;51.466;-2.588;2024-01-11T04:02:42;4.93;;;2.72;;
66970;SDS011;53901;51.466;-2.588;2024-01-11T04:05:07;7.13;;;2.50;;
66970;SDS011;53901;51.466;-2.588;2024-01-11T04:07:33;5.20;;;2.45;;
66970;SDS011;53901;51.466;-2.588;2024-01-11T04:09:58;7.00;;;2.58;;
66970;SDS011;53901;51.466;-2.588;2024-01-11T04:12:24;6.38;;;2.42;;
66970;SDS011;53901;51.466;-2.588;2024-01-11T04:14:49;5.38;;;2.90;;
66970;SDS011;53901;51.466;-2.588;2024-01-11T04:17:15;5.53;;;2.65;;
66970;SDS011;53901;51.466;-2.588;2024-01-11T04:19:40;6.85;;;2.35;;
66970;SDS011;53901;51.466;-2.588;2024-01-11T04:22:05;12.27;;;3.17;;
66970;SDS011;53901;51.466;-2.588;2024-01-11T04:24:31;7.72;;;2.90;;
66970;SDS011;53901;51.466;-2.588;2024-01-11T04:26:56;13.25;;;2.63;;
66970;SDS011;53901;51.466;-2.588;2024-01-11T04:29:28;8.30;;;2.45;;
66970;SDS011;53901;51.466;-2.588;2024-01-11T04:31:53;7.90;;;2.72;;
66970;SDS011;53901;51.466;-2.588;2024-01-11T04:34:19;7.53;;;2.30;;
66970;SDS011;53901;51.466;-2.588;2024-01-11T04:36:44;5.32;;;2.45;;
66970;SDS011;53901;51.466;-2.588;2024-01-11T04:39:10;8.70;;;2.58;;
66970;SDS011;53901;51.466;-2.588;2024-01-11T04:41:36;10.05;;;2.42;;
66970;SDS011;53901;51.466;-2.588;2024-01-11T04:44:04;8.75;;;2.70;;
66970;SDS011;53901;51.466;-2.588;2024-01-11T04:46:30;5.57;;;2.70;;
66970;SDS011;53901;51.466;-2.588;2024-01-11T04:48:55;12.25;;;2.90;;
66970;SDS011;53901;51.466;-2.588;2024-01-11T04:51:21;7.80;;;2.60;;
66970;SDS011;53901;51.466;-2.588;2024-01-11T04:53:46;8.57;;;2.70;;
66970;SDS011;53901;51.466;-2.588;2024-01-11T04:56:16;6.00;;;2.85;;
66970;SDS011;53901;51.466;-2.588;2024-01-11T04:58:43;13.07;;;2.83;;
66970;SDS011;53901;51.466;-2.588;2024-01-11T05:01:12;6.82;;;2.85;;
66970;SDS011;53901;51.466;-2.588;2024-01-11T05:03:39;6.70;;;2.58;;
66970;SDS011;53901;51.466;-2.588;2024-01-11T05:06:04;4.32;;;2.22;;
66970;SDS011;53901;51.466;-2.588;2024-01-11T05:08:30;10.07;;;3.15;;
66970;SDS011;53901;51.466;-2.588;2024-01-11T05:10:55;8.68;;;2.55;;
66970;SDS011;53901;51.466;-2.588;2024-01-11T05:13:21;8.75;;;2.40;;
66970;SDS011;53901;51.466;-2.588;2024-01-11T05:15:47;8.93;;;3.05;;
66970;SDS011;53901;51.466;-2.588;2024-01-11T05:18:13;4.80;;;2.30;;
66970;SDS011;53901;51.466;-2.588;2024-01-11T05:20:39;7.97;;;2.58;;
66970;SDS011;53901;51.466;-2.588;2024-01-11T05:23:04;11.65;;;2.90;;
66970;SDS011;53901;51.466;-2.588;2024-01-11T05:25:30;7.53;;;2.70;;
66970;SDS011;53901;51.466;-2.588;2024-01-11T05:27:59;12.85;;;2.95;;
66970;SDS011;53901;51.466;-2.588;2024-01-11T05:30:28;6.15;;;2.40;;
66970;SDS011;53901;51.466;-2.588;2024-01-11T05:32:54;10.32;;;2.72;;
66970;SDS011;53901;51.466;-2.588;2024-01-11T05:35:20;5.55;;;2.50;;
66970;SDS011;53901;51.466;-2.588;2024-01-11T05:37:46;6.03;;;2.90;;
66970;SDS011;53901;51.466;-2.588;2024-01-11T05:40:11;9.23;;;3.03;;
66970;SDS011;53901;51.466;-2.588;2024-01-11T05:42:36;8.48;;;2.58;;
66970;SDS011;53901;51.466;-2.588;2024-01-11T05:45:04;11.63;;;2.75;;
66970;SDS011;53901;51.466;-2.588;2024-01-11T05:47:30;10.63;;;2.90;;
66970;SDS011;53901;51.466;-2.588;2024-01-11T05:49:55;8.32;;;2.70;;
66970;SDS011;53901;51.466;-2.588;2024-01-11T05:52:21;6.72;;;2.63;;
66970;SDS011;53901;51.466;-2.588;2024-01-11T05:54:46;13.30;;;3.08;;
66970;SDS011;53901;51.466;-2.588;2024-01-11T05:57:12;7.57;;;2.63;;
66970;SDS011;53901;51.466;-2.588;2024-01-11T05:59:37;5.55;;;2.83;;
66970;SDS011;53901;51.466;-2.588;2024-01-11T06:02:07;6.47;;;2.50;;
66970;SDS011;53901;51.466;-2.588;2024-01-11T06:04:33;4.38;;;2.53;;
66970;SDS011;53901;51.466;-2.588;2024-01-11T06:06:58;7.32;;;2.67;;
66970;SDS011;53901;51.466;-2.588;2024-01-11T06:09:24;7.07;;;2.65;;
66970;SDS011;53901;51.466;-2.588;2024-01-11T06:11:49;8.95;;;2.88;;
66970;SDS011;53901;51.466;-2.588;2024-01-11T06:14:15;14.20;;;2.88;;
66970;SDS011;53901;51.466;-2.588;2024-01-11T06:16:40;5.90;;;2.50;;
66970;SDS011;53901;51.466;-2.588;2024-01-11T06:19:06;8.80;;;2.72;;
66970;SDS011;53901;51.466;-2.588;2024-01-11T06:21:32;6.60;;;2.50;;
66970;SDS011;53901;51.466;-2.588;2024-01-11T06:23:58;8.02;;;2.40;;
66970;SDS011;53901;51.466;-2.588;2024-01-11T06:26:23;6.85;;;2.70;;
66970;SDS011;53901;51.466;-2.588;2024-01-11T06:28:49;8.40;;;3.45;;
66970;SDS011;53901;51.466;-2.588;2024-01-11T06:31:14;10.85;;;2.88;;
66970;SDS011;53901;51.466;-2.588;2024-01-11T06:33:40;6.47;;;2.42;;
66970;SDS011;53901;51.466;-2.588;2024-01-11T06:36:05;8.73;;;2.50;;
66970;SDS011;53901;51.466;-2.588;2024-01-11T06:38:32;7.30;;;2.35;;
66970;SDS011;53901;51.466;-2.588;2024-01-11T06:40:57;7.40;;;2.33;;
66970;SDS011;53901;51.466;-2.588;2024-01-11T06:43:23;8.88;;;2.63;;
66970;SDS011;53901;51.466;-2.588;2024-01-11T06:45:49;6.57;;;2.15;;
66970;SDS011;53901;51.466;-2.588;2024-01-11T06:48:14;6.30;;;2.22;;
66970;SDS011;53901;51.466;-2.588;2024-01-11T06:50:40;11.52;;;2.63;;
66970;SDS011;53901;51.466;-2.588;2024-01-11T06:53:05;6.60;;;2.30;;
66970;SDS011;53901;51.466;-2.588;2024-01-11T06:55:30;8.25;;;2.42;;
66970;SDS011;53901;51.466;-2.588;2024-01-11T06:57:56;10.30;;;2.10;;
66970;SDS011;53901;51.466;-2.588;2024-01-11T07:00:22;8.57;;;2.40;;
66970;SDS011;53901;51.466;-2.588;2024-01-11T07:02:48;5.03;;;2.22;;
66970;SDS011;53901;51.466;-2.588;2024-01-11T07:05:13;9.30;;;2.78;;
66970;SDS011;53901;51.466;-2.588;2024-01-11T07:07:39;10.60;;;2.38;;
66970;SDS011;53901;51.466;-2.588;2024-01-11T07:10:04;5.13;;;2.30;;
66970;SDS011;53901;51.466;-2.588;2024-01-11T07:12:30;8.10;;;2.17;;
66970;SDS011;53901;51.466;-2.588;2024-01-11T07:14:56;5.38;;;2.05;;
66970;SDS011;53901;51.466;-2.588;2024-01-11T07:17:22;10.90;;;2.40;;
66970;SDS011;53901;51.466;-2.588;2024-01-11T07:19:48;9.75;;;2.30;;
66970;SDS011;53901;51.466;-2.588;2024-01-11T07:22:14;10.18;;;2.33;;
66970;SDS011;53901;51.466;-2.588;2024-01-11T07:24:39;9.15;;;1.90;;
66970;SDS011;53901;51.466;-2.588;2024-01-11T07:27:05;6.78;;;1.95;;
66970;SDS011;53901;51.466;-2.588;2024-01-11T07:29:31;8.70;;;2.30;;
66970;SDS011;53901;51.466;-2.588;2024-01-11T07:31:56;4.95;;;2.25;;
66970;SDS011;53901;51.466;-2.588;2024-01-11T07:34:22;10.93;;;2.20;;
66970;SDS011;53901;51.466;-2.588;2024-01-11T07:36:49;4.97;;;1.98;;
66970;SDS011;53901;51.466;-2.588;2024-01-11T07:39:15;10.13;;;2.15;;
66970;SDS011;53901;51.466;-2.588;2024-01-11T07:41:40;6.60;;;2.47;;
66970;SDS011;53901;51.466;-2.588;2024-01-11T07:44:06;7.18;;;2.05;;
66970;SDS011;53901;51.466;-2.588;2024-01-11T07:46:31;10.55;;;3.25;;
66970;SDS011;53901;51.466;-2.588;2024-01-11T07:48:56;9.20;;;2.28;;
66970;SDS011;53901;51.466;-2.588;2024-01-11T07:51:24;6.57;;;1.88;;
66970;SDS011;53901;51.466;-2.588;2024-01-11T07:53:49;8.60;;;2.28;;
66970;SDS011;53901;51.466;-2.588;2024-01-11T07:56:15;11.05;;;1.95;;
66970;SDS011;53901;51.466;-2.588;2024-01-11T07:58:40;6.22;;;2.05;;
66970;SDS011;53901;51.466;-2.588;2024-01-11T08:01:06;6.80;;;4.05;;
66970;SDS011;53901;51.466;-2.588;2024-01-11T08:03:32;6.03;;;1.98;;
66970;SDS011;53901;51.466;-2.588;2024-01-11T08:05:59;6.70;;;2.88;;
66970;SDS011;53901;51.466;-2.588;2024-01-11T08:08:25;6.78;;;2.05;;
66970;SDS011;53901;51.466;-2.588;2024-01-11T08:10:51;6.70;;;2.00;;
66970;SDS011;53901;51.466;-2.588;2024-01-11T08:13:16;11.18;;;2.33;;
66970;SDS011;53901;51.466;-2.588;2024-01-11T08:15:43;13.88;;;2.33;;
66970;SDS011;53901;51.466;-2.588;2024-01-11T08:18:12;7.20;;;2.25;;
66970;SDS011;53901;51.466;-2.588;2024-01-11T08:20:38;8.45;;;2.10;;
66970;SDS011;53901;51.466;-2.588;2024-01-11T08:23:04;7.95;;;2.05;;
66970;SDS011;53901;51.466;-2.588;2024-01-11T08:25:30;9.20;;;1.95;;
66970;SDS011;53901;51.466;-2.588;2024-01-11T08:27:55;4.80;;;1.58;;
66970;SDS011;53901;51.466;-2.588;2024-01-11T08:30:21;4.57;;;2.10;;
66970;SDS011;53901;51.466;-2.588;2024-01-11T08:32:47;5.88;;;1.52;;
66970;SDS011;53901;51.466;-2.588;2024-01-11T08:35:13;6.32;;;1.90;;
66970;SDS011;53901;51.466;-2.588;2024-01-11T08:37:39;9.02;;;1.60;;
66970;SDS011;53901;51.466;-2.588;2024-01-11T08:40:04;7.05;;;1.83;;
66970;SDS011;53901;51.466;-2.588;2024-01-11T08:42:31;4.95;;;1.80;;
66970;SDS011;53901;51.466;-2.588;2024-01-11T08:44:56;5.70;;;1.65;;
66970;SDS011;53901;51.466;-2.588;2024-01-11T08:47:22;4.95;;;1.80;;
66970;SDS011;53901;51.466;-2.588;2024-01-11T08:49:47;6.65;;;1.50;;
66970;SDS011;53901;51.466;-2.588;2024-01-11T08:52:13;5.55;;;1.42;;
66970;SDS011;53901;51.466;-2.588;2024-01-11T08:54:39;6.22;;;1.23;;
66970;SDS011;53901;51.466;-2.588;2024-01-11T08:57:04;11.00;;;1.80;;
66970;SDS011;53901;51.466;-2.588;2024-01-11T08:59:29;5.95;;;1.38;;
66970;SDS011;53901;51.466;-2.588;2024-01-11T09:01:55;5.40;;;1.20;;
66970;SDS011;53901;51.466;-2.588;2024-01-11T09:04:20;3.67;;;1.50;;
66970;SDS011;53901;51.466;-2.588;2024-01-11T09:06:46;5.18;;;1.55;;
66970;SDS011;53901;51.466;-2.588;2024-01-11T09:09:11;4.38;;;1.48;;
66970;SDS011;53901;51.466;-2.588;2024-01-11T09:11:38;4.22;;;1.40;;
66970;SDS011;53901;51.466;-2.588;2024-01-11T09:14:06;3.85;;;1.40;;
66970;SDS011;53901;51.466;-2.588;2024-01-11T09:16:32;9.82;;;2.08;;
66970;SDS011;53901;51.466;-2.588;2024-01-11T09:18:58;3.40;;;1.63;;
66970;SDS011;53901;51.466;-2.588;2024-01-11T09:21:25;8.07;;;1.80;;
66970;SDS011;53901;51.466;-2.588;2024-01-11T09:23:51;4.40;;;1.48;;
66970;SDS011;53901;51.466;-2.588;2024-01-11T09:26:17;7.65;;;1.25;;
66970;SDS011;53901;51.466;-2.588;2024-01-11T09:28:42;6.30;;;1.48;;
66970;SDS011;53901;51.466;-2.588;2024-01-11T09:31:08;7.30;;;1.38;;
66970;SDS011;53901;51.466;-2.588;2024-01-11T09:33:33;5.30;;;1.38;;
66970;SDS011;53901;51.466;-2.588;2024-01-11T09:35:59;5.05;;;1.40;;
66970;SDS011;53901;51.466;-2.588;2024-01-11T09:38:26;2.17;;;1.02;;
66970;SDS011;53901;51.466;-2.588;2024-01-11T09:41:08;10.55;;;1.60;;
66970;SDS011;53901;51.466;-2.588;2024-01-11T09:43:34;3.38;;;1.15;;
66970;SDS011;53901;51.466;-2.588;2024-01-11T09:46:03;6.80;;;1.38;;
66970;SDS011;53901;51.466;-2.588;2024-01-11T09:48:32;4.45;;;1.23;;
66970;SDS011;53901;51.466;-2.588;2024-01-11T09:50:58;10.93;;;1.40;;
66970;SDS011;53901;51.466;-2.588;2024-01-11T09:53:24;3.83;;;1.20;;
66970;SDS011;53901;51.466;-2.588;2024-01-11T09:55:51;5.38;;;1.65;;
66970;SDS011;53901;51.466;-2.588;2024-01-11T09:58:16;2.40;;;0.98;;
66970;SDS011;53901;51.466;-2.588;2024-01-11T10:00:43;6.82;;;1.20;;
66970;SDS011;53901;51.466;-2.588;2024-01-11T10:03:09;5.50;;;1.40;;
66970;SDS011;53901;51.466;-2.588;2024-01-11T10:05:34;3.63;;;1.65;;
66970;SDS011;53901;51.466;-2.588;2024-01-11T10:08:00;8.55;;;1.60;;
66970;SDS011;53901;51.466;-2.588;2024-01-11T10:10:26;5.82;;;1.65;;
66970;SDS011;53901;51.466;-2.588;2024-01-11T10:12:52;4.35;;;1.50;;
66970;SDS011;53901;51.466;-2.588;2024-01-11T10:15:18;4.43;;;1.92;;
66970;SDS011;53901;51.466;-2.588;2024-01-11T10:17:44;4.15;;;1.63;;
66970;SDS011;53901;51.466;-2.588;2024-01-11T10:20:11;8.10;;;1.92;;
66970;SDS011;53901;51.466;-2.588;2024-01-11T10:22:41;3.63;;;1.70;;
66970;SDS011;53901;51.466;-2.588;2024-01-11T10:25:13;4.63;;;1.23;;
66970;SDS011;53901;51.466;-2.588;2024-01-11T10:27:41;1.15;;;0.85;;
66970;SDS011;53901;51.466;-2.588;2024-01-11T10:30:10;4.53;;;1.60;;
66970;SDS011;53901;51.466;-2.588;2024-01-11T10:32:38;10.02;;;1.77;;
66970;SDS011;53901;51.466;-2.588;2024-01-11T10:35:07;4.68;;;1.30;;
66970;SDS011;53901;51.466;-2.588;2024-01-11T10:37:33;3.40;;;1.25;;
66970;SDS011;53901;51.466;-2.588;2024-01-11T10:40:01;4.10;;;1.30;;
66970;SDS011;53901;51.466;-2.588;2024-01-11T10:42:34;3.92;;;1.20;;
66970;SDS011;53901;51.466;-2.588;2024-01-11T10:45:02;3.45;;;1.30;;
66970;SDS011;53901;51.466;-2.588;2024-01-11T10:47:29;5.20;;;1.20;;
66970;SDS011;53901;51.466;-2.588;2024-01-11T10:49:56;5.45;;;1.75;;
66970;SDS011;53901;51.466;-2.588;2024-01-11T10:52:22;5.55;;;1.40;;
66970;SDS011;53901;51.466;-2.588;2024-01-11T10:54:52;2.10;;;1.15;;
66970;SDS011;53901;51.466;-2.588;2024-01-11T10:57:18;2.40;;;1.10;;
66970;SDS011;53901;51.466;-2.588;2024-01-11T10:59:44;3.15;;;1.30;;
66970;SDS011;53901;51.466;-2.588;2024-01-11T11:02:10;8.07;;;1.67;;
66970;SDS011;53901;51.466;-2.588;2024-01-11T11:04:38;4.57;;;1.50;;
66970;SDS011;53901;51.466;-2.588;2024-01-11T11:07:04;3.25;;;1.38;;
66970;SDS011;53901;51.466;-2.588;2024-01-11T11:09:32;2.58;;;1.30;;
66970;SDS011;53901;51.466;-2.588;2024-01-11T11:12:00;5.75;;;1.90;;
66970;SDS011;53901;51.466;-2.588;2024-01-11T11:14:25;7.03;;;1.85;;
66970;SDS011;53901;51.466;-2.588;2024-01-11T11:16:51;3.97;;;1.90;;
66970;SDS011;53901;51.466;-2.588;2024-01-11T11:19:17;3.88;;;1.45;;
66970;SDS011;53901;51.466;-2.588;2024-01-11T11:21:44;3.45;;;1.58;;
66970;SDS011;53901;51.466;-2.588;2024-01-11T11:24:13;5.88;;;1.48;;
66970;SDS011;53901;51.466;-2.588;2024-01-11T11:26:39;4.50;;;1.40;;
66970;SDS011;53901;51.466;-2.588;2024-01-11T11:29:05;1.55;;;1.10;;
66970;SDS011;53901;51.466;-2.588;2024-01-11T11:31:37;3.00;;;1.20;;
66970;SDS011;53901;51.466;-2.588;2024-01-11T11:34:05;5.93;;;2.13;;
66970;SDS011;53901;51.466;-2.588;2024-01-11T11:36:31;3.45;;;1.30;;
66970;SDS011;53901;51.466;-2.588;2024-01-11T11:38:59;2.47;;;1.20;;
66970;SDS011;53901;51.466;-2.588;2024-01-11T11:41:34;3.97;;;1.27;;
66970;SDS011;53901;51.466;-2.588;2024-01-11T11:44:01;2.80;;;1.27;;
66970;SDS011;53901;51.466;-2.588;2024-01-11T11:46:27;3.97;;;1.27;;
66970;SDS011;53901;51.466;-2.588;2024-01-11T11:48:53;2.45;;;1.20;;
66970;SDS011;53901;51.466;-2.588;2024-01-11T11:51:19;3.25;;;1.20;;
66970;SDS011;53901;51.466;-2.588;2024-01-11T11:53:46;6.28;;;1.70;;
66970;SDS011;53901;51.466;-2.588;2024-01-11T11:56:13;4.75;;;1.50;;
66970;SDS011;53901;51.466;-2.588;2024-01-11T11:58:41;5.38;;;1.75;;
66970;SDS011;53901;51.466;-2.588;2024-01-11T12:01:10;9.80;;;1.65;;
66970;SDS011;53901;51.466;-2.588;2024-01-11T12:03:37;3.67;;;1.23;;
66970;SDS011;53901;51.466;-2.588;2024-01-11T12:06:04;6.75;;;1.85;;
66970;SDS011;53901;51.466;-2.588;2024-01-11T12:08:33;6.32;;;2.10;;
66970;SDS011;53901;51.466;-2.588;2024-01-11T12:10:59;5.47;;;1.77;;
66970;SDS011;53901;51.466;-2.588;2024-01-11T12:13:25;8.50;;;1.80;;
66970;SDS011;53901;51.466;-2.588;2024-01-11T12:15:51;5.18;;;1.90;;
66970;SDS011;53901;51.466;-2.588;2024-01-11T12:18:17;2.78;;;1.63;;
66970;SDS011;53901;51.466;-2.588;2024-01-11T12:20:42;5.03;;;2.20;;
66970;SDS011;53901;51.466;-2.588;2024-01-11T12:23:08;3.97;;;1.60;;
66970;SDS011;53901;51.466;-2.588;2024-01-11T12:25:34;2.35;;;1.10;;
66970;SDS011;53901;51.466;-2.588;2024-01-11T12:28:00;3.78;;;1.33;;
66970;SDS011;53901;51.466;-2.588;2024-01-11T12:30:25;2.22;;;1.40;;
66970;SDS011;53901;51.466;-2.588;2024-01-11T12:32:51;3.58;;;1.45;;
66970;SDS011;53901;51.466;-2.588;2024-01-11T12:35:23;5.75;;;1.73;;
66970;SDS011;53901;51.466;-2.588;2024-01-11T12:37:55;2.22;;;1.30;;
66970;SDS011;53901;51.466;-2.588;2024-01-11T12:40:21;4.18;;;1.50;;
66970;SDS011;53901;51.466;-2.588;2024-01-11T12:42:47;5.78;;;1.50;;
66970;SDS011;53901;51.466;-2.588;2024-01-11T12:45:15;3.20;;;1.48;;
66970;SDS011;53901;51.466;-2.588;2024-01-11T12:47:40;4.05;;;1.55;;
66970;SDS011;53901;51.466;-2.588;2024-01-11T12:50:06;5.00;;;1.20;;
66970;SDS011;53901;51.466;-2.588;2024-01-11T12:52:32;3.20;;;1.20;;
66970;SDS011;53901;51.466;-2.588;2024-01-11T12:54:58;6.95;;;1.60;;
66970;SDS011;53901;51.466;-2.588;2024-01-11T12:57:24;4.20;;;1.80;;
66970;SDS011;53901;51.466;-2.588;2024-01-11T12:59:50;4.55;;;2.03;;
66970;SDS011;53901;51.466;-2.588;2024-01-11T13:02:16;2.88;;;1.75;;
66970;SDS011;53901;51.466;-2.588;2024-01-11T13:04:45;4.35;;;1.58;;
66970;SDS011;53901;51.466;-2.588;2024-01-11T13:07:11;4.05;;;1.50;;
66970;SDS011;53901;51.466;-2.588;2024-01-11T13:09:37;3.58;;;1.75;;
66970;SDS011;53901;51.466;-2.588;2024-01-11T13:12:03;4.00;;;1.60;;
66970;SDS011;53901;51.466;-2.588;2024-01-11T13:14:29;3.60;;;1.63;;
66970;SDS011;53901;51.466;-2.588;2024-01-11T13:16:54;5.32;;;1.58;;
66970;SDS011;53901;51.466;-2.588;2024-01-11T13:19:20;6.90;;;1.80;;
66970;SDS011;53901;51.466;-2.588;2024-01-11T13:21:45;2.78;;;1.65;;
66970;SDS011;53901;51.466;-2.588;2024-01-11T13:24:11;6.13;;;1.52;;
66970;SDS011;53901;51.466;-2.588;2024-01-11T13:26:38;2.28;;;1.50;;
66970;SDS011;53901;51.466;-2.588;2024-01-11T13:29:04;4.30;;;2.10;;
66970;SDS011;53901;51.466;-2.588;2024-01-11T13:31:31;4.30;;;2.40;;
66970;SDS011;53901;51.466;-2.588;2024-01-11T13:33:57;10.63;;;2.50;;
66970;SDS011;53901;51.466;-2.588;2024-01-11T13:36:23;7.07;;;2.28;;
66970;SDS011;53901;51.466;-2.588;2024-01-11T13:38:48;3.92;;;1.92;;
66970;SDS011;53901;51.466;-2.588;2024-01-11T13:41:18;5.13;;;1.80;;
66970;SDS011;53901;51.466;-2.588;2024-01-11T13:43:43;3.45;;;1.80;;
66970;SDS011;53901;51.466;-2.588;2024-01-11T13:46:09;5.53;;;1.83;;
66970;SDS011;53901;51.466;-2.588;2024-01-11T13:48:36;6.20;;;2.58;;
66970;SDS011;53901;51.466;-2.588;2024-01-11T13:51:03;6.78;;;2.05;;
66970;SDS011;53901;51.466;-2.588;2024-01-11T13:53:29;2.75;;;1.83;;
66970;SDS011;53901;51.466;-2.588;2024-01-11T13:55:54;5.32;;;2.13;;
66970;SDS011;53901;51.466;-2.588;2024-01-11T13:58:20;3.17;;;1.80;;
66970;SDS011;53901;51.466;-2.588;2024-01-11T14:00:46;3.72;;;1.80;;
66970;SDS011;53901;51.466;-2.588;2024-01-11T14:03:12;6.13;;;1.73;;
66970;SDS011;53901;51.466;-2.588;2024-01-11T14:05:37;4.28;;;1.77;;
66970;SDS011;53901;51.466;-2.588;2024-01-11T14:08:03;8.27;;;2.13;;
66970;SDS011;53901;51.466;-2.588;2024-01-11T14:10:32;4.40;;;1.92;;
66970;SDS011;53901;51.466;-2.588;2024-01-11T14:12:58;4.38;;;1.60;;
66970;SDS011;53901;51.466;-2.588;2024-01-11T14:15:24;4.45;;;1.70;;
66970;SDS011;53901;51.466;-2.588;2024-01-11T14:17:50;4.05;;;1.50;;
66970;SDS011;53901;51.466;-2.588;2024-01-11T14:20:15;4.53;;;1.55;;
66970;SDS011;53901;51.466;-2.588;2024-01-11T14:22:42;3.90;;;1.50;;
66970;SDS011;53901;51.466;-2.588;2024-01-11T14:25:14;6.13;;;1.77;;
66970;SDS011;53901;51.466;-2.588;2024-01-11T14:27:40;4.32;;;1.70;;